sensor_id;sensor_type;location;lat;lon;timestamp;pressure;altitude;pressure_sealevel;temperature;humidity
39823;BME280;25499;53.958;10.970;2023-11-19T07:55:20;100176.97;;;5.87;100.00
39823;BME280;25499;53.958;10.970;2023-11-19T07:57:47;100190.75;;;5.94;100.00
39823;BME280;25499;53.958;10.970;2023-11-19T08:00:15;100207.97;;;5.93;100.00
39823;BME280;25499;53.958;10.970;2023-11-19T08:02:43;100210.66;;;6.01;100.00
39823;BME280;25499;53.958;10.970;2023-11-19T08:05:10;100204.66;;;6.07;100.00
39823;BME280;25499;53.958;10.970;2023-11-19T08:07:37;100207.31;;;6.19;100.00
39823;BME280;25499;53.958;10.970;2023-11-19T08:10:07;100204.78;;;6.27;100.00
39823;BME280;25499;53.958;10.970;2023-11-19T08:12:37;100212.63;;;6.42;100.00
39823;BME280;25499;53.958;10.970;2023-11-19T08:15:05;100216.97;;;6.54;100.00
39823;BME280;25499;53.958;10.970;2023-11-19T08:17:32;100219.56;;;6.51;100.00
39823;BME280;25499;53.958;10.970;2023-11-19T08:19:59;100216.97;;;6.51;100.00
39823;BME280;25499;53.958;10.970;2023-11-19T08:22:26;100215.31;;;6.70;100.00
39823;BME280;25499;53.958;10.970;2023-11-19T08:24:55;100220.59;;;6.93;100.00
39823;BME280;25499;53.958;10.970;2023-11-19T08:27:22;100224.91;;;7.03;100.00
39823;BME280;25499;53.958;10.970;2023-11-19T08:29:54;100213.72;;;7.14;100.00
39823;BME280;25499;53.958;10.970;2023-11-19T08:32:22;100224.09;;;7.26;100.00
39823;BME280;25499;53.958;10.970;2023-11-19T08:34:49;100227.56;;;7.45;100.00
39823;BME280;25499;53.958;10.970;2023-11-19T08:37:15;100229.31;;;7.47;100.00
39823;BME280;25499;53.958;10.970;2023-11-19T08:39:43;100232.78;;;7.65;100.00
39823;BME280;25499;53.958;10.970;2023-11-19T08:42:10;100228.47;;;7.62;100.00
39823;BME280;25499;53.958;10.970;2023-11-19T08:44:37;100225.00;;;7.70;100.00
39823;BME280;25499;53.958;10.970;2023-11-19T08:47:05;100227.59;;;7.83;100.00
39823;BME280;25499;53.958;10.970;2023-11-19T08:49:32;100234.50;;;7.91;100.00
39823;BME280;25499;53.958;10.970;2023-11-19T08:52:00;100224.13;;;7.94;100.00
39823;BME280;25499;53.958;10.970;2023-11-19T08:54:28;100225.84;;;8.01;100.00
39823;BME280;25499;53.958;10.970;2023-11-19T08:56:55;100233.66;;;7.93;100.00
39823;BME280;25499;53.958;10.970;2023-11-19T08:59:21;100231.91;;;8.00;100.00
39823;BME280;25499;53.958;10.970;2023-11-19T09:01:49;100239.66;;;8.08;100.00
39823;BME280;25499;53.958;10.970;2023-11-19T09:04:18;100242.25;;;8.08;100.00
39823;BME280;25499;53.958;10.970;2023-11-19T09:06:47;100235.38;;;8.08;100.00
39823;BME280;25499;53.958;10.970;2023-11-19T09:09:14;100236.22;;;8.10;100.00
39823;BME280;25499;53.958;10.970;2023-11-19T09:11:41;100242.25;;;8.15;100.00
39823;BME280;25499;53.958;10.970;2023-11-19T09:14:08;100243.13;;;8.16;100.00
39823;BME280;25499;53.958;10.970;2023-11-19T09:16:35;100248.28;;;8.22;100.00
39823;BME280;25499;53.958;10.970;2023-11-19T09:19:02;100250.00;;;8.34;100.00
39823;BME280;25499;53.958;10.970;2023-11-19T09:21:30;100254.34;;;8.32;100.00
39823;BME280;25499;53.958;10.970;2023-11-19T09:23:57;100255.19;;;8.29;100.00
39823;BME280;25499;53.958;10.970;2023-11-19T09:26:23;100262.97;;;8.35;100.00
39823;BME280;25499;53.958;10.970;2023-11-19T09:28:50;100269.00;;;8.34;100.00
39823;BME280;25499;53.958;10.970;2023-11-19T09:31:18;100268.16;;;8.45;100.00
39823;BME280;25499;53.958;10.970;2023-11-19T09:33:44;100264.69;;;8.55;100.00
39823;BME280;25499;53.958;10.970;2023-11-19T09:36:12;100271.56;;;8.68;100.00
39823;BME280;25499;53.958;10.970;2023-11-19T09:38:43;100262.91;;;8.68;100.00
39823;BME280;25499;53.958;10.970;2023-11-19T09:41:10;100267.22;;;8.70;100.00
39823;BME280;25499;53.958;10.970;2023-11-19T09:43:39;100274.16;;;8.73;100.00
39823;BME280;25499;53.958;10.970;2023-11-19T09:46:09;100274.09;;;8.88;100.00
39823;BME280;25499;53.958;10.970;2023-11-19T09:48:37;100274.88;;;9.04;100.00
39823;BME280;25499;53.958;10.970;2023-11-19T09:51:06;100273.09;;;9.15;100.00
39823;BME280;25499;53.958;10.970;2023-11-19T09:53:34;100273.03;;;9.25;100.00
39823;BME280;25499;53.958;10.970;2023-11-19T09:56:03;100279.03;;;9.41;100.00
39823;BME280;25499;53.958;10.970;2023-11-19T09:58:32;100277.19;;;9.52;100.00
39823;BME280;25499;53.958;10.970;2023-11-19T10:01:00;100277.16;;;9.60;100.00
39823;BME280;25499;53.958;10.970;2023-11-19T10:03:32;100277.06;;;9.70;100.00
39823;BME280;25499;53.958;10.970;2023-11-19T10:06:01;100278.84;;;9.67;100.00
39823;BME280;25499;53.958;10.970;2023-11-19T10:08:31;100274.53;;;9.63;100.00
39823;BME280;25499;53.958;10.970;2023-11-19T10:10:58;100283.19;;;9.63;100.00
39823;BME280;25499;53.958;10.970;2023-11-19T10:13:28;100283.22;;;9.59;100.00
39823;BME280;25499;53.958;10.970;2023-11-19T10:15:57;100276.31;;;9.56;100.00
39823;BME280;25499;53.958;10.970;2023-11-19T10:18:25;100291.94;;;9.53;100.00
39823;BME280;25499;53.958;10.970;2023-11-19T10:20:52;100283.28;;;9.49;100.00
39823;BME280;25499;53.958;10.970;2023-11-19T10:23:20;100294.53;;;9.55;100.00
39823;BME280;25499;53.958;10.970;2023-11-19T10:25:47;100288.38;;;9.65;100.00
39823;BME280;25499;53.958;10.970;2023-11-19T10:28:15;100291.88;;;9.62;100.00
39823;BME280;25499;53.958;10.970;2023-11-19T10:30:44;100292.66;;;9.70;100.00
39823;BME280;25499;53.958;10.970;2023-11-19T10:33:12;100297.00;;;9.71;100.00
39823;BME280;25499;53.958;10.970;2023-11-19T10:35:53;100296.97;;;9.78;100.00
39823;BME280;25499;53.958;10.970;2023-11-19T10:38:20;100295.22;;;9.83;100.00
39823;BME280;25499;53.958;10.970;2023-11-19T10:40:47;100292.56;;;9.86;100.00
39823;BME280;25499;53.958;10.970;2023-11-19T10:43:14;100285.63;;;9.88;100.00
39823;BME280;25499;53.958;10.970;2023-11-19T10:45:41;100283.84;;;9.96;100.00
39823;BME280;25499;53.958;10.970;2023-11-19T10:48:10;100294.97;;;10.09;100.00
39823;BME280;25499;53.958;10.970;2023-11-19T10:50:39;100299.22;;;10.18;100.00
39823;BME280;25499;53.958;10.970;2023-11-19T10:53:08;100301.78;;;10.24;100.00
39823;BME280;25499;53.958;10.970;2023-11-19T10:55:36;100301.78;;;10.24;100.00
39823;BME280;25499;53.958;10.970;2023-11-19T10:58:05;100300.97;;;10.19;100.00
39823;BME280;25499;53.958;10.970;2023-11-19T11:00:37;100301.81;;;10.21;100.00
39823;BME280;25499;53.958;10.970;2023-11-19T11:03:10;100301.84;;;10.16;100.00
39823;BME280;25499;53.958;10.970;2023-11-19T11:05:37;100303.59;;;10.14;100.00
39823;BME280;25499;53.958;10.970;2023-11-19T11:08:06;100301.84;;;10.15;100.00
39823;BME280;25499;53.958;10.970;2023-11-19T11:10:39;100298.34;;;10.20;100.00
39823;BME280;25499;53.958;10.970;2023-11-19T11:13:17;100300.06;;;10.23;100.00
39823;BME280;25499;53.958;10.970;2023-11-19T11:15:44;100284.31;;;10.38;100.00
39823;BME280;25499;53.958;10.970;2023-11-19T11:18:13;100285.25;;;10.34;100.00
39823;BME280;25499;53.958;10.970;2023-11-19T11:20:41;100285.22;;;10.39;100.00
39823;BME280;25499;53.958;10.970;2023-11-19T11:23:33;100286.75;;;10.55;100.00
39823;BME280;25499;53.958;10.970;2023-11-19T11:28:59;100278.06;;;10.58;100.00
39823;BME280;25499;53.958;10.970;2023-11-19T11:31:35;100272.94;;;10.50;100.00
39823;BME280;25499;53.958;10.970;2023-11-19T11:34:39;100265.16;;;10.47;100.00
39823;BME280;25499;53.958;10.970;2023-11-19T11:37:14;100269.97;;;11.49;100.00
39823;BME280;25499;53.958;10.970;2023-11-19T11:39:45;100259.50;;;12.55;100.00
39823;BME280;25499;53.958;10.970;2023-11-19T11:42:34;100266.50;;;14.44;100.00
39823;BME280;25499;53.958;10.970;2023-11-19T11:45:02;100249.88;;;17.61;100.00
39823;BME280;25499;53.958;10.970;2023-11-19T11:50:53;100154.97;;;18.84;100.00
39823;BME280;25499;53.958;10.970;2023-11-19T11:53:21;100072.88;;;17.13;100.00
39823;BME280;25499;53.958;10.970;2023-11-19T11:55:57;100021.06;;;15.54;100.00
39823;BME280;25499;53.958;10.970;2023-11-19T11:58:27;100015.47;;;14.02;100.00
39823;BME280;25499;53.958;10.970;2023-11-19T12:00:57;100014.53;;;13.07;100.00
39823;BME280;25499;53.958;10.970;2023-11-19T12:03:27;100005.81;;;12.35;100.00
39823;BME280;25499;53.958;10.970;2023-11-19T12:05:56;100020.41;;;12.03;100.00
39823;BME280;25499;53.958;10.970;2023-11-19T12:08:28;100017.34;;;11.81;100.00
39823;BME280;25499;53.958;10.970;2023-11-19T12:10:57;100020.69;;;11.42;100.00
39823;BME280;25499;53.958;10.970;2023-11-19T12:13:29;100026.09;;;11.31;100.00
39823;BME280;25499;53.958;10.970;2023-11-19T12:16:08;100035.56;;;11.82;100.00
39823;BME280;25499;53.958;10.970;2023-11-19T12:18:38;100046.00;;;12.66;100.00
39823;BME280;25499;53.958;10.970;2023-11-19T12:21:09;100046.19;;;13.31;100.00
39823;BME280;25499;53.958;10.970;2023-11-19T12:23:44;100032.97;;;13.01;100.00
39823;BME280;25499;53.958;10.970;2023-11-19T12:26:35;100034.78;;;12.22;100.00
39823;BME280;25499;53.958;10.970;2023-11-19T12:29:03;100031.44;;;11.72;100.00
39823;BME280;25499;53.958;10.970;2023-11-19T12:31:33;100035.50;;;11.40;100.00
39823;BME280;25499;53.958;10.970;2023-11-19T12:34:08;100033.44;;;11.09;100.00
39823;BME280;25499;53.958;10.970;2023-11-19T12:36:40;100033.75;;;10.91;100.00
39823;BME280;25499;53.958;10.970;2023-11-19T12:39:07;100041.84;;;10.72;100.00
39823;BME280;25499;53.958;10.970;2023-11-19T12:41:49;100040.94;;;10.75;100.00
39823;BME280;25499;53.958;10.970;2023-11-19T12:44:17;100046.97;;;10.77;100.00
39823;BME280;25499;53.958;10.970;2023-11-19T12:46:44;100050.56;;;10.70;100.00
39823;BME280;25499;53.958;10.970;2023-11-19T12:49:11;100053.03;;;10.77;100.00
39823;BME280;25499;53.958;10.970;2023-11-19T12:51:43;100051.41;;;10.70;100.00
39823;BME280;25499;53.958;10.970;2023-11-19T12:54:10;100047.25;;;10.60;100.00
39823;BME280;25499;53.958;10.970;2023-11-19T12:56:38;100056.88;;;10.53;100.00
39823;BME280;25499;53.958;10.970;2023-11-19T12:59:11;100030.88;;;10.50;100.00
39823;BME280;25499;53.958;10.970;2023-11-19T13:01:38;100034.25;;;10.57;100.00
39823;BME280;25499;53.958;10.970;2023-11-19T13:04:16;100042.06;;;10.57;100.00
39823;BME280;25499;53.958;10.970;2023-11-19T13:06:46;100039.56;;;10.51;100.00
39823;BME280;25499;53.958;10.970;2023-11-19T13:09:22;100034.47;;;10.43;100.00
39823;BME280;25499;53.958;10.970;2023-11-19T13:11:50;100048.91;;;10.64;100.00
39823;BME280;25499;53.958;10.970;2023-11-19T13:14:18;100040.09;;;10.74;100.00
39823;BME280;25499;53.958;10.970;2023-11-19T13:16:45;100041.63;;;10.86;100.00
39823;BME280;25499;53.958;10.970;2023-11-19T13:19:13;100035.81;;;10.70;100.00
39823;BME280;25499;53.958;10.970;2023-11-19T13:21:42;100035.16;;;10.57;100.00
39823;BME280;25499;53.958;10.970;2023-11-19T13:24:13;100034.97;;;10.68;100.00
39823;BME280;25499;53.958;10.970;2023-11-19T13:26:40;100043.81;;;10.58;100.00
39823;BME280;25499;53.958;10.970;2023-11-19T13:29:07;100037.00;;;10.48;100.00
39823;BME280;25499;53.958;10.970;2023-11-19T13:31:36;100044.03;;;10.41;100.00
39823;BME280;25499;53.958;10.970;2023-11-19T13:34:03;100045.88;;;10.31;100.00
39823;BME280;25499;53.958;10.970;2023-11-19T13:36:32;100055.47;;;10.27;100.00
39823;BME280;25499;53.958;10.970;2023-11-19T13:39:01;100059.88;;;10.22;100.00
39823;BME280;25499;53.958;10.970;2023-11-19T13:41:29;100058.16;;;10.20;100.00
39823;BME280;25499;53.958;10.970;2023-11-19T13:43:56;100051.31;;;10.13;100.00
39823;BME280;25499;53.958;10.970;2023-11-19T13:46:24;100056.63;;;10.06;100.00
39823;BME280;25499;53.958;10.970;2023-11-19T13:48:51;100061.81;;;10.06;100.00
39823;BME280;25499;53.958;10.970;2023-11-19T13:51:18;100059.28;;;10.00;100.00
39823;BME280;25499;53.958;10.970;2023-11-19T13:53:45;100062.81;;;9.96;100.00
39823;BME280;25499;53.958;10.970;2023-11-19T13:56:11;100067.22;;;9.88;100.00
39823;BME280;25499;53.958;10.970;2023-11-19T13:58:39;100064.63;;;9.89;100.00
39823;BME280;25499;53.958;10.970;2023-11-19T14:01:07;100064.63;;;9.89;100.00
39823;BME280;25499;53.958;10.970;2023-11-19T14:03:34;100063.81;;;9.84;100.00
39823;BME280;25499;53.958;10.970;2023-11-19T14:06:01;100062.94;;;9.82;100.00
39823;BME280;25499;53.958;10.970;2023-11-19T14:08:28;100069.91;;;9.80;100.00
39823;BME280;25499;53.958;10.970;2023-11-19T14:10:55;100072.53;;;9.77;100.00
39823;BME280;25499;53.958;10.970;2023-11-19T14:13:25;100052.63;;;9.78;100.00
39823;BME280;25499;53.958;10.970;2023-11-19T14:15:53;100069.91;;;9.80;100.00
39823;BME280;25499;53.958;10.970;2023-11-19T14:18:20;100078.66;;;9.71;100.00
39823;BME280;25499;53.958;10.970;2023-11-19T14:20:48;100072.66;;;9.66;100.00
39823;BME280;25499;53.958;10.970;2023-11-19T14:23:14;100079.53;;;9.69;100.00
39823;BME280;25499;53.958;10.970;2023-11-19T14:25:43;100092.59;;;9.67;100.00
39823;BME280;25499;53.958;10.970;2023-11-19T14:28:12;100080.44;;;9.66;100.00
39823;BME280;25499;53.958;10.970;2023-11-19T14:30:38;100097.75;;;9.69;100.00
39823;BME280;25499;53.958;10.970;2023-11-19T14:33:08;100101.28;;;9.62;100.00
39823;BME280;25499;53.958;10.970;2023-11-19T14:35:35;100099.63;;;9.56;100.00
39823;BME280;25499;53.958;10.970;2023-11-19T14:38:02;100116.94;;;9.56;100.00
39823;BME280;25499;53.958;10.970;2023-11-19T14:40:30;100116.97;;;9.52;100.00
39823;BME280;25499;53.958;10.970;2023-11-19T14:42:58;100119.59;;;9.51;100.00
39823;BME280;25499;53.958;10.970;2023-11-19T14:45:25;100117.84;;;9.50;100.00
39823;BME280;25499;53.958;10.970;2023-11-19T14:47:51;100123.94;;;9.49;100.00
39823;BME280;25499;53.958;10.970;2023-11-19T14:50:21;100117.81;;;9.55;100.00
39823;BME280;25499;53.958;10.970;2023-11-19T14:52:47;100123.03;;;9.51;100.00
39823;BME280;25499;53.958;10.970;2023-11-19T14:55:16;100120.47;;;9.48;100.00
39823;BME280;25499;53.958;10.970;2023-11-19T14:57:43;100120.56;;;9.39;100.00
39823;BME280;25499;53.958;10.970;2023-11-19T15:00:13;100123.19;;;9.31;100.00
39823;BME280;25499;53.958;10.970;2023-11-19T15:02:40;100125.03;;;9.23;100.00
39823;BME280;25499;53.958;10.970;2023-11-19T15:05:08;100128.47;;;9.27;100.00
39823;BME280;25499;53.958;10.970;2023-11-19T15:07:37;100129.28;;;9.30;100.00
39823;BME280;25499;53.958;10.970;2023-11-19T15:10:06;100140.53;;;9.29;100.00
39823;BME280;25499;53.958;10.970;2023-11-19T15:12:37;100142.31;;;9.24;100.00
39823;BME280;25499;53.958;10.970;2023-11-19T15:15:07;100135.38;;;9.26;100.00
39823;BME280;25499;53.958;10.970;2023-11-19T15:17:36;100140.56;;;9.26;100.00
39823;BME280;25499;53.958;10.970;2023-11-19T15:20:03;100143.25;;;9.17;100.00
39823;BME280;25499;53.958;10.970;2023-11-19T15:22:30;100153.66;;;9.09;100.00
39823;BME280;25499;53.958;10.970;2023-11-19T15:25:00;100154.56;;;9.07;100.00
39823;BME280;25499;53.958;10.970;2023-11-19T15:27:27;100162.38;;;9.01;100.00
39823;BME280;25499;53.958;10.970;2023-11-19T15:29:54;100171.91;;;8.99;100.00
39823;BME280;25499;53.958;10.970;2023-11-19T15:32:21;100161.53;;;8.99;100.00
39823;BME280;25499;53.958;10.970;2023-11-19T15:34:48;100171.91;;;8.99;100.00
39823;BME280;25499;53.958;10.970;2023-11-19T15:37:15;100170.19;;;8.98;100.00
39823;BME280;25499;53.958;10.970;2023-11-19T15:39:42;100171.91;;;8.99;100.00
39823;BME280;25499;53.958;10.970;2023-11-19T15:42:10;100170.22;;;8.93;100.00
39823;BME280;25499;53.958;10.970;2023-11-19T15:44:37;100175.38;;;8.98;100.00
39823;BME280;25499;53.958;10.970;2023-11-19T15:47:06;100171.94;;;8.95;100.00
39823;BME280;25499;53.958;10.970;2023-11-19T15:49:32;100170.16;;;9.02;100.00
39823;BME280;25499;53.958;10.970;2023-11-19T15:52:01;100179.72;;;9.00;100.00
39823;BME280;25499;53.958;10.970;2023-11-19T15:54:30;100177.13;;;8.94;100.00
39823;BME280;25499;53.958;10.970;2023-11-19T15:56:57;100188.41;;;8.91;100.00
39823;BME280;25499;53.958;10.970;2023-11-19T15:59:26;100197.97;;;8.86;100.00
39823;BME280;25499;53.958;10.970;2023-11-19T16:01:52;100204.91;;;8.80;100.00
39823;BME280;25499;53.958;10.970;2023-11-19T16:04:19;100198.81;;;8.84;100.00
39823;BME280;25499;53.958;10.970;2023-11-19T16:06:48;100205.75;;;8.88;100.00
39823;BME280;25499;53.958;10.970;2023-11-19T16:09:15;100207.44;;;8.92;100.00
39823;BME280;25499;53.958;10.970;2023-11-19T16:11:44;100216.06;;;8.97;100.00
39823;BME280;25499;53.958;10.970;2023-11-19T16:14:13;100206.56;;;8.94;100.00
39823;BME280;25499;53.958;10.970;2023-11-19T16:16:42;100209.13;;;8.99;100.00
39823;BME280;25499;53.958;10.970;2023-11-19T16:19:09;100213.47;;;8.92;100.00
39823;BME280;25499;53.958;10.970;2023-11-19T16:21:36;100210.03;;;8.92;100.00
39823;BME280;25499;53.958;10.970;2023-11-19T16:24:04;100223.00;;;8.93;100.00
39823;BME280;25499;53.958;10.970;2023-11-19T16:26:31;100225.59;;;8.92;100.00
39823;BME280;25499;53.958;10.970;2023-11-19T16:28:58;100227.34;;;8.91;100.00
39823;BME280;25499;53.958;10.970;2023-11-19T16:31:25;100227.34;;;8.91;100.00
39823;BME280;25499;53.958;10.970;2023-11-19T16:33:53;100231.66;;;8.91;100.00
39823;BME280;25499;53.958;10.970;2023-11-19T16:36:20;100229.94;;;8.94;100.00
39823;BME280;25499;53.958;10.970;2023-11-19T16:38:48;100225.63;;;8.90;100.00
39823;BME280;25499;53.958;10.970;2023-11-19T16:41:18;100230.81;;;8.87;100.00
39823;BME280;25499;53.958;10.970;2023-11-19T16:43:46;100226.50;;;8.85;100.00
39823;BME280;25499;53.958;10.970;2023-11-19T16:46:16;100224.78;;;8.84;100.00
39823;BME280;25499;53.958;10.970;2023-11-19T16:48:45;100228.22;;;8.86;100.00
39823;BME280;25499;53.958;10.970;2023-11-19T16:51:13;100236.00;;;8.86;100.00
39823;BME280;25499;53.958;10.970;2023-11-19T16:53:44;100231.72;;;8.83;100.00
39823;BME280;25499;53.958;10.970;2023-11-19T16:56:11;100235.22;;;8.77;100.00
39823;BME280;25499;53.958;10.970;2023-11-19T16:58:39;100235.22;;;8.74;100.00
39823;BME280;25499;53.958;10.970;2023-11-19T17:01:07;100239.56;;;8.71;100.00
39823;BME280;25499;53.958;10.970;2023-11-19T17:03:36;100245.59;;;8.76;100.00
39823;BME280;25499;53.958;10.970;2023-11-19T17:06:03;100242.09;;;8.77;100.00
39823;BME280;25499;53.958;10.970;2023-11-19T17:08:32;100249.03;;;8.75;100.00
39823;BME280;25499;53.958;10.970;2023-11-19T17:11:00;100247.31;;;8.74;100.00
39823;BME280;25499;53.958;10.970;2023-11-19T17:13:27;100253.38;;;8.73;100.00
39823;BME280;25499;53.958;10.970;2023-11-19T17:16:00;100257.69;;;8.77;100.00
39823;BME280;25499;53.958;10.970;2023-11-19T17:18:27;100253.34;;;8.81;100.00
39823;BME280;25499;53.958;10.970;2023-11-19T17:20:54;100249.03;;;8.83;100.00
39823;BME280;25499;53.958;10.970;2023-11-19T17:23:23;100258.56;;;8.73;100.00
39823;BME280;25499;53.958;10.970;2023-11-19T17:25:52;100247.34;;;8.63;100.00
39823;BME280;25499;53.958;10.970;2023-11-19T17:28:19;100259.47;;;8.66;100.00
39823;BME280;25499;53.958;10.970;2023-11-19T17:30:45;100254.28;;;8.67;100.00
39823;BME280;25499;53.958;10.970;2023-11-19T17:33:12;100251.66;;;8.70;100.00
39823;BME280;25499;53.958;10.970;2023-11-19T17:35:39;100260.28;;;8.77;100.00
39823;BME280;25499;53.958;10.970;2023-11-19T17:38:06;100271.50;;;8.84;100.00
39823;BME280;25499;53.958;10.970;2023-11-19T17:40:33;100271.50;;;8.85;100.00
39823;BME280;25499;53.958;10.970;2023-11-19T17:43:01;100275.84;;;8.83;100.00
39823;BME280;25499;53.958;10.970;2023-11-19T17:45:28;100271.50;;;8.81;100.00
39823;BME280;25499;53.958;10.970;2023-11-19T17:47:56;100270.66;;;8.80;100.00
39823;BME280;25499;53.958;10.970;2023-11-19T17:50:22;100275.00;;;8.78;100.00
39823;BME280;25499;53.958;10.970;2023-11-19T17:52:51;100278.44;;;8.74;100.00
39823;BME280;25499;53.958;10.970;2023-11-19T17:55:19;100280.13;;;8.89;100.00
39823;BME280;25499;53.958;10.970;2023-11-19T17:57:46;100268.06;;;8.75;100.00
39823;BME280;25499;53.958;10.970;2023-11-19T18:00:15;100277.59;;;8.75;100.00
39823;BME280;25499;53.958;10.970;2023-11-19T18:02:43;100275.84;;;8.77;100.00
39823;BME280;25499;53.958;10.970;2023-11-19T18:05:11;100275.84;;;8.75;100.00
39823;BME280;25499;53.958;10.970;2023-11-19T18:07:38;100268.94;;;8.76;100.00
39823;BME280;25499;53.958;10.970;2023-11-19T18:10:08;100271.53;;;8.74;100.00
39823;BME280;25499;53.958;10.970;2023-11-19T18:12:35;100275.88;;;8.71;100.00
39823;BME280;25499;53.958;10.970;2023-11-19T18:15:03;100269.81;;;8.69;100.00
39823;BME280;25499;53.958;10.970;2023-11-19T18:17:31;100267.25;;;8.66;100.00
39823;BME280;25499;53.958;10.970;2023-11-19T18:19:58;100277.63;;;8.64;100.00
39823;BME280;25499;53.958;10.970;2023-11-19T18:22:25;100267.22;;;8.69;100.00
39823;BME280;25499;53.958;10.970;2023-11-19T18:24:53;100275.00;;;8.75;100.00
39823;BME280;25499;53.958;10.970;2023-11-19T18:27:19;100282.78;;;8.72;100.00
39823;BME280;25499;53.958;10.970;2023-11-19T18:29:46;100277.59;;;8.75;100.00
39823;BME280;25499;53.958;10.970;2023-11-19T18:32:14;100284.53;;;8.77;100.00
39823;BME280;25499;53.958;10.970;2023-11-19T18:34:42;100281.03;;;8.80;100.00
39823;BME280;25499;53.958;10.970;2023-11-19T18:37:09;100281.94;;;8.76;100.00
39823;BME280;25499;53.958;10.970;2023-11-19T18:39:39;100284.53;;;8.76;100.00
39823;BME280;25499;53.958;10.970;2023-11-19T18:42:07;100277.59;;;8.75;100.00
39823;BME280;25499;53.958;10.970;2023-11-19T18:44:33;100281.03;;;8.75;100.00
39823;BME280;25499;53.958;10.970;2023-11-19T18:47:00;100289.69;;;8.79;100.00
39823;BME280;25499;53.958;10.970;2023-11-19T18:49:27;100285.38;;;8.73;100.00
39823;BME280;25499;53.958;10.970;2023-11-19T18:51:55;100284.53;;;8.74;100.00
39823;BME280;25499;53.958;10.970;2023-11-19T18:54:22;100286.28;;;8.68;100.00
39823;BME280;25499;53.958;10.970;2023-11-19T18:56:48;100291.44;;;8.75;100.00
39823;BME280;25499;53.958;10.970;2023-11-19T18:59:17;100294.91;;;8.74;100.00
39823;BME280;25499;53.958;10.970;2023-11-19T19:01:45;100294.91;;;8.73;100.00
39823;BME280;25499;53.958;10.970;2023-11-19T19:04:11;100295.75;;;8.72;100.00
39823;BME280;25499;53.958;10.970;2023-11-19T19:06:39;100296.63;;;8.75;100.00
39823;BME280;25499;53.958;10.970;2023-11-19T19:09:07;100302.69;;;8.76;100.00
39823;BME280;25499;53.958;10.970;2023-11-19T19:11:34;100299.19;;;8.78;100.00
39823;BME280;25499;53.958;10.970;2023-11-19T19:14:01;100301.78;;;8.83;100.00
39823;BME280;25499;53.958;10.970;2023-11-19T19:16:27;100297.50;;;8.77;100.00
39823;BME280;25499;53.958;10.970;2023-11-19T19:18:54;100297.47;;;8.81;100.00
39823;BME280;25499;53.958;10.970;2023-11-19T19:21:21;100298.34;;;8.78;100.00
39823;BME280;25499;53.958;10.970;2023-11-19T19:23:49;100308.72;;;8.83;100.00
39823;BME280;25499;53.958;10.970;2023-11-19T19:26:17;100315.63;;;8.82;100.00
39823;BME280;25499;53.958;10.970;2023-11-19T19:28:43;100313.03;;;8.82;100.00
39823;BME280;25499;53.958;10.970;2023-11-19T19:31:10;100316.53;;;8.80;100.00
39823;BME280;25499;53.958;10.970;2023-11-19T19:33:42;100314.78;;;8.75;100.00
39823;BME280;25499;53.958;10.970;2023-11-19T19:36:10;100311.34;;;8.78;100.00
39823;BME280;25499;53.958;10.970;2023-11-19T19:38:36;100311.34;;;8.76;100.00
39823;BME280;25499;53.958;10.970;2023-11-19T19:41:04;100311.34;;;8.76;100.00
39823;BME280;25499;53.958;10.970;2023-11-19T19:43:33;100311.34;;;8.75;100.00
39823;BME280;25499;53.958;10.970;2023-11-19T19:46:00;100315.63;;;8.79;100.00
39823;BME280;25499;53.958;10.970;2023-11-19T19:48:27;100316.53;;;8.80;100.00
39823;BME280;25499;53.958;10.970;2023-11-19T19:50:54;100320.81;;;8.82;100.00
39823;BME280;25499;53.958;10.970;2023-11-19T19:53:21;100321.66;;;8.87;100.00
39823;BME280;25499;53.958;10.970;2023-11-19T19:55:47;100324.28;;;8.86;100.00
39823;BME280;25499;53.958;10.970;2023-11-19T19:58:15;100323.41;;;8.90;100.00
39823;BME280;25499;53.958;10.970;2023-11-19T20:00:44;100320.81;;;8.88;100.00
39823;BME280;25499;53.958;10.970;2023-11-19T20:03:12;100324.25;;;8.90;100.00
39823;BME280;25499;53.958;10.970;2023-11-19T20:05:39;100333.78;;;8.85;100.00
39823;BME280;25499;53.958;10.970;2023-11-19T20:08:07;100339.88;;;8.83;100.00
39823;BME280;25499;53.958;10.970;2023-11-19T20:10:34;100346.78;;;8.85;100.00
39823;BME280;25499;53.958;10.970;2023-11-19T20:13:02;100341.59;;;8.85;100.00
39823;BME280;25499;53.958;10.970;2023-11-19T20:15:34;100341.59;;;8.88;100.00
39823;BME280;25499;53.958;10.970;2023-11-19T20:18:04;100333.78;;;8.87;100.00
39823;BME280;25499;53.958;10.970;2023-11-19T20:20:31;100338.13;;;8.89;100.00
39823;BME280;25499;53.958;10.970;2023-11-19T20:22:58;100334.66;;;8.87;100.00
39823;BME280;25499;53.958;10.970;2023-11-19T20:25:25;100332.94;;;8.86;100.00
39823;BME280;25499;53.958;10.970;2023-11-19T20:27:51;100324.31;;;8.84;100.00
39823;BME280;25499;53.958;10.970;2023-11-19T20:30:18;100336.41;;;8.82;100.00
39823;BME280;25499;53.958;10.970;2023-11-19T20:32:46;100329.50;;;8.75;100.00
39823;BME280;25499;53.958;10.970;2023-11-19T20:35:14;100329.50;;;8.78;100.00
39823;BME280;25499;53.958;10.970;2023-11-19T20:37:41;100324.34;;;8.66;100.00
39823;BME280;25499;53.958;10.970;2023-11-19T20:40:09;100331.28;;;8.57;100.00
39823;BME280;25499;53.958;10.970;2023-11-19T20:42:37;100329.53;;;8.53;100.00
39823;BME280;25499;53.958;10.970;2023-11-19T20:45:07;100332.13;;;8.53;100.00